sensor_id;sensor_type;location;lat;lon;timestamp;temperature;humidity
41694;DHT22;27377;50.666;9.150;2024-01-11T00:00:09;-6.10;99.90
41694;DHT22;27377;50.666;9.150;2024-01-11T00:03:04;-6.10;99.90
41694;DHT22;27377;50.666;9.150;2024-01-11T00:05:52;-6.10;99.90
41694;DHT22;27377;50.666;9.150;2024-01-11T00:08:45;-6.20;99.90
41694;DHT22;27377;50.666;9.150;2024-01-11T00:11:30;-6.10;99.90
41694;DHT22;27377;50.666;9.150;2024-01-11T00:14:20;-6.10;99.90
41694;DHT22;27377;50.666;9.150;2024-01-11T00:17:11;-6.10;99.90
41694;DHT22;27377;50.666;9.150;2024-01-11T00:20:06;-6.00;99.90
41694;DHT22;27377;50.666;9.150;2024-01-11T00:23:05;-6.00;99.90
41694;DHT22;27377;50.666;9.150;2024-01-11T00:25:54;-6.00;99.90
41694;DHT22;27377;50.666;9.150;2024-01-11T00:28:54;-6.00;99.90
41694;DHT22;27377;50.666;9.150;2024-01-11T00:31:53;-6.00;99.90
41694;DHT22;27377;50.666;9.150;2024-01-11T00:34:47;-6.00;99.90
41694;DHT22;27377;50.666;9.150;2024-01-11T00:37:45;-6.10;99.90
41694;DHT22;27377;50.666;9.150;2024-01-11T00:40:41;-6.10;99.90
41694;DHT22;27377;50.666;9.150;2024-01-11T00:43:29;-6.10;99.90
41694;DHT22;27377;50.666;9.150;2024-01-11T00:46:21;-6.20;99.90
41694;DHT22;27377;50.666;9.150;2024-01-11T00:49:26;-6.20;99.90
41694;DHT22;27377;50.666;9.150;2024-01-11T00:52:17;-6.20;99.90
41694;DHT22;27377;50.666;9.150;2024-01-11T00:55:08;-6.30;99.90
41694;DHT22;27377;50.666;9.150;2024-01-11T00:57:58;-6.20;99.90
41694;DHT22;27377;50.666;9.150;2024-01-11T01:00:49;-6.20;99.90
41694;DHT22;27377;50.666;9.150;2024-01-11T01:03:44;-6.20;99.90
41694;DHT22;27377;50.666;9.150;2024-01-11T01:06:50;-6.20;99.90
41694;DHT22;27377;50.666;9.150;2024-01-11T01:09:38;-6.20;99.90
41694;DHT22;27377;50.666;9.150;2024-01-11T01:12:25;-6.30;99.90
41694;DHT22;27377;50.666;9.150;2024-01-11T01:15:15;-6.30;99.90
41694;DHT22;27377;50.666;9.150;2024-01-11T01:18:02;-6.30;99.90
41694;DHT22;27377;50.666;9.150;2024-01-11T01:20:52;-6.30;99.90
41694;DHT22;27377;50.666;9.150;2024-01-11T01:23:40;-6.30;99.90
41694;DHT22;27377;50.666;9.150;2024-01-11T01:26:28;-6.30;99.90
41694;DHT22;27377;50.666;9.150;2024-01-11T01:29:26;-6.20;99.90
41694;DHT22;27377;50.666;9.150;2024-01-11T01:32:14;-6.20;99.90
41694;DHT22;27377;50.666;9.150;2024-01-11T01:35:04;-6.20;99.90
41694;DHT22;27377;50.666;9.150;2024-01-11T01:37:48;-6.20;99.90
41694;DHT22;27377;50.666;9.150;2024-01-11T01:40:45;-6.20;99.90
41694;DHT22;27377;50.666;9.150;2024-01-11T01:43:36;-6.30;99.90
41694;DHT22;27377;50.666;9.150;2024-01-11T01:46:23;-6.30;99.90
41694;DHT22;27377;50.666;9.150;2024-01-11T01:49:12;-6.30;99.90
41694;DHT22;27377;50.666;9.150;2024-01-11T01:51:57;-6.30;99.90
41694;DHT22;27377;50.666;9.150;2024-01-11T01:54:42;-6.30;99.90
41694;DHT22;27377;50.666;9.150;2024-01-11T01:57:27;-6.30;99.90
41694;DHT22;27377;50.666;9.150;2024-01-11T02:00:12;-6.30;99.90
41694;DHT22;27377;50.666;9.150;2024-01-11T02:02:58;-6.20;99.90
41694;DHT22;27377;50.666;9.150;2024-01-11T02:05:42;-6.30;99.90
41694;DHT22;27377;50.666;9.150;2024-01-11T02:08:27;-6.30;99.90
41694;DHT22;27377;50.666;9.150;2024-01-11T02:11:12;-6.30;99.90
41694;DHT22;27377;50.666;9.150;2024-01-11T02:13:56;-6.30;99.90
41694;DHT22;27377;50.666;9.150;2024-01-11T02:16:41;-6.30;99.90
41694;DHT22;27377;50.666;9.150;2024-01-11T02:19:25;-6.30;99.90
41694;DHT22;27377;50.666;9.150;2024-01-11T02:22:15;-6.30;99.90
41694;DHT22;27377;50.666;9.150;2024-01-11T02:25:04;-6.40;99.90
41694;DHT22;27377;50.666;9.150;2024-01-11T02:27:49;-6.50;99.90
41694;DHT22;27377;50.666;9.150;2024-01-11T02:30:34;-6.50;99.90
41694;DHT22;27377;50.666;9.150;2024-01-11T02:33:18;-6.60;99.90
41694;DHT22;27377;50.666;9.150;2024-01-11T02:36:02;-6.50;99.90
41694;DHT22;27377;50.666;9.150;2024-01-11T02:38:47;-6.50;99.90
41694;DHT22;27377;50.666;9.150;2024-01-11T02:41:32;-6.50;99.90
41694;DHT22;27377;50.666;9.150;2024-01-11T02:44:17;-6.50;99.90
41694;DHT22;27377;50.666;9.150;2024-01-11T02:47:01;-6.50;99.90
41694;DHT22;27377;50.666;9.150;2024-01-11T02:49:45;-6.50;99.90
41694;DHT22;27377;50.666;9.150;2024-01-11T02:52:29;-6.60;99.90
41694;DHT22;27377;50.666;9.150;2024-01-11T02:55:13;-6.60;99.90
41694;DHT22;27377;50.666;9.150;2024-01-11T02:57:56;-6.70;99.90
41694;DHT22;27377;50.666;9.150;2024-01-11T03:00:41;-6.60;99.90
41694;DHT22;27377;50.666;9.150;2024-01-11T03:03:25;-6.60;99.90
41694;DHT22;27377;50.666;9.150;2024-01-11T03:06:09;-6.60;99.90
41694;DHT22;27377;50.666;9.150;2024-01-11T03:08:53;-6.60;99.90
41694;DHT22;27377;50.666;9.150;2024-01-11T03:11:37;-6.60;99.90
41694;DHT22;27377;50.666;9.150;2024-01-11T03:14:21;-6.60;99.90
41694;DHT22;27377;50.666;9.150;2024-01-11T03:17:06;-6.70;99.90
41694;DHT22;27377;50.666;9.150;2024-01-11T03:19:50;-6.70;99.90
41694;DHT22;27377;50.666;9.150;2024-01-11T03:22:34;-6.70;99.90
41694;DHT22;27377;50.666;9.150;2024-01-11T03:25:18;-6.70;99.90
41694;DHT22;27377;50.666;9.150;2024-01-11T03:28:02;-6.70;99.90
41694;DHT22;27377;50.666;9.150;2024-01-11T03:30:47;-6.70;99.90
41694;DHT22;27377;50.666;9.150;2024-01-11T03:33:31;-6.60;99.90
41694;DHT22;27377;50.666;9.150;2024-01-11T03:36:15;-6.60;99.90
41694;DHT22;27377;50.666;9.150;2024-01-11T03:38:59;-6.60;99.90
41694;DHT22;27377;50.666;9.150;2024-01-11T03:41:44;-6.60;99.90
41694;DHT22;27377;50.666;9.150;2024-01-11T03:44:28;-6.70;99.90
41694;DHT22;27377;50.666;9.150;2024-01-11T03:47:12;-6.60;99.90
41694;DHT22;27377;50.666;9.150;2024-01-11T03:49:56;-6.70;99.90
41694;DHT22;27377;50.666;9.150;2024-01-11T03:52:42;-6.70;99.90
41694;DHT22;27377;50.666;9.150;2024-01-11T03:55:26;-6.80;99.90
41694;DHT22;27377;50.666;9.150;2024-01-11T03:58:10;-6.80;99.90
41694;DHT22;27377;50.666;9.150;2024-01-11T04:00:54;-6.90;99.90
41694;DHT22;27377;50.666;9.150;2024-01-11T04:03:38;-6.90;99.90
41694;DHT22;27377;50.666;9.150;2024-01-11T04:06:23;-7.00;99.90
41694;DHT22;27377;50.666;9.150;2024-01-11T04:09:08;-6.90;99.90
41694;DHT22;27377;50.666;9.150;2024-01-11T04:11:52;-6.90;99.90
41694;DHT22;27377;50.666;9.150;2024-01-11T04:14:39;-6.90;99.90
41694;DHT22;27377;50.666;9.150;2024-01-11T04:17:24;-6.90;99.90
41694;DHT22;27377;50.666;9.150;2024-01-11T04:20:08;-6.90;99.90
41694;DHT22;27377;50.666;9.150;2024-01-11T04:22:52;-7.00;99.90
41694;DHT22;27377;50.666;9.150;2024-01-11T04:25:36;-6.90;99.90
41694;DHT22;27377;50.666;9.150;2024-01-11T04:28:20;-6.90;99.90
41694;DHT22;27377;50.666;9.150;2024-01-11T04:31:04;-6.80;99.90
41694;DHT22;27377;50.666;9.150;2024-01-11T04:33:48;-6.90;99.90
41694;DHT22;27377;50.666;9.150;2024-01-11T04:36:32;-6.80;99.90
41694;DHT22;27377;50.666;9.150;2024-01-11T04:39:16;-6.80;99.90
41694;DHT22;27377;50.666;9.150;2024-01-11T04:42:00;-7.00;99.90
41694;DHT22;27377;50.666;9.150;2024-01-11T04:44:44;-7.00;99.90
41694;DHT22;27377;50.666;9.150;2024-01-11T04:47:28;-7.10;99.90
41694;DHT22;27377;50.666;9.150;2024-01-11T04:50:12;-7.10;99.90
41694;DHT22;27377;50.666;9.150;2024-01-11T04:52:56;-7.10;99.90
41694;DHT22;27377;50.666;9.150;2024-01-11T04:55:41;-7.20;99.90
41694;DHT22;27377;50.666;9.150;2024-01-11T04:58:25;-7.10;99.90
41694;DHT22;27377;50.666;9.150;2024-01-11T05:01:13;-7.10;99.90
41694;DHT22;27377;50.666;9.150;2024-01-11T05:03:57;-7.10;99.90
41694;DHT22;27377;50.666;9.150;2024-01-11T05:06:41;-7.10;99.90
41694;DHT22;27377;50.666;9.150;2024-01-11T05:09:25;-7.20;99.90
41694;DHT22;27377;50.666;9.150;2024-01-11T05:12:09;-7.30;99.90
41694;DHT22;27377;50.666;9.150;2024-01-11T05:14:53;-7.30;99.90
41694;DHT22;27377;50.666;9.150;2024-01-11T05:17:37;-7.30;99.90
41694;DHT22;27377;50.666;9.150;2024-01-11T05:20:22;-7.30;99.90
41694;DHT22;27377;50.666;9.150;2024-01-11T05:23:06;-7.30;99.90
41694;DHT22;27377;50.666;9.150;2024-01-11T05:25:50;-7.30;99.90
41694;DHT22;27377;50.666;9.150;2024-01-11T05:28:34;-7.20;99.90
41694;DHT22;27377;50.666;9.150;2024-01-11T05:31:18;-7.20;99.90
41694;DHT22;27377;50.666;9.150;2024-01-11T05:34:03;-7.20;99.90
41694;DHT22;27377;50.666;9.150;2024-01-11T05:36:47;-7.20;99.90
41694;DHT22;27377;50.666;9.150;2024-01-11T05:39:31;-7.30;99.90
41694;DHT22;27377;50.666;9.150;2024-01-11T05:42:16;-7.30;99.90
41694;DHT22;27377;50.666;9.150;2024-01-11T05:45:00;-7.20;99.90
41694;DHT22;27377;50.666;9.150;2024-01-11T05:47:44;-7.20;99.90
41694;DHT22;27377;50.666;9.150;2024-01-11T05:50:28;-7.20;99.90
41694;DHT22;27377;50.666;9.150;2024-01-11T05:53:12;-7.10;99.90
41694;DHT22;27377;50.666;9.150;2024-01-11T05:55:56;-7.20;99.90
41694;DHT22;27377;50.666;9.150;2024-01-11T05:58:40;-7.20;99.90
41694;DHT22;27377;50.666;9.150;2024-01-11T06:01:25;-7.30;99.90
41694;DHT22;27377;50.666;9.150;2024-01-11T06:04:08;-7.30;99.90
41694;DHT22;27377;50.666;9.150;2024-01-11T06:06:52;-7.30;99.90
41694;DHT22;27377;50.666;9.150;2024-01-11T06:09:36;-7.30;99.90
41694;DHT22;27377;50.666;9.150;2024-01-11T06:12:20;-7.40;99.90
41694;DHT22;27377;50.666;9.150;2024-01-11T06:15:05;-7.40;99.90
41694;DHT22;27377;50.666;9.150;2024-01-11T06:18:04;-7.30;99.90
41694;DHT22;27377;50.666;9.150;2024-01-11T06:20:48;-7.40;99.90
41694;DHT22;27377;50.666;9.150;2024-01-11T06:23:39;-7.40;99.90
41694;DHT22;27377;50.666;9.150;2024-01-11T06:26:29;-7.40;99.90
41694;DHT22;27377;50.666;9.150;2024-01-11T06:29:19;-7.40;99.90
41694;DHT22;27377;50.666;9.150;2024-01-11T06:32:09;-7.40;99.90
41694;DHT22;27377;50.666;9.150;2024-01-11T06:34:59;-7.40;99.90
41694;DHT22;27377;50.666;9.150;2024-01-11T06:37:46;-7.50;99.90
41694;DHT22;27377;50.666;9.150;2024-01-11T06:40:37;-7.40;99.90
41694;DHT22;27377;50.666;9.150;2024-01-11T06:43:29;-7.50;99.90
41694;DHT22;27377;50.666;9.150;2024-01-11T06:46:19;-7.40;99.90
41694;DHT22;27377;50.666;9.150;2024-01-11T06:49:09;-7.50;99.90
41694;DHT22;27377;50.666;9.150;2024-01-11T06:51:53;-7.50;99.90
41694;DHT22;27377;50.666;9.150;2024-01-11T06:54:37;-7.50;99.90
41694;DHT22;27377;50.666;9.150;2024-01-11T06:57:21;-7.50;99.90
41694;DHT22;27377;50.666;9.150;2024-01-11T07:00:06;-7.50;99.90
41694;DHT22;27377;50.666;9.150;2024-01-11T07:02:51;-7.50;99.90
41694;DHT22;27377;50.666;9.150;2024-01-11T07:05:41;-7.50;99.90
41694;DHT22;27377;50.666;9.150;2024-01-11T07:08:33;-7.50;99.90
41694;DHT22;27377;50.666;9.150;2024-01-11T07:11:17;-7.40;99.90
41694;DHT22;27377;50.666;9.150;2024-01-11T07:14:01;-7.40;99.90
41694;DHT22;27377;50.666;9.150;2024-01-11T07:16:50;-7.50;99.90
41694;DHT22;27377;50.666;9.150;2024-01-11T07:19:35;-7.60;99.90
41694;DHT22;27377;50.666;9.150;2024-01-11T07:22:24;-7.70;99.90
41694;DHT22;27377;50.666;9.150;2024-01-11T07:25:09;-7.70;99.90
41694;DHT22;27377;50.666;9.150;2024-01-11T07:27:53;-7.70;99.90
41694;DHT22;27377;50.666;9.150;2024-01-11T07:30:37;-7.70;99.90
41694;DHT22;27377;50.666;9.150;2024-01-11T07:33:21;-7.70;99.90
41694;DHT22;27377;50.666;9.150;2024-01-11T07:36:11;-7.70;99.90
41694;DHT22;27377;50.666;9.150;2024-01-11T07:39:22;-7.60;99.90
41694;DHT22;27377;50.666;9.150;2024-01-11T07:42:09;-7.60;99.90
41694;DHT22;27377;50.666;9.150;2024-01-11T07:44:53;-7.50;99.90
41694;DHT22;27377;50.666;9.150;2024-01-11T07:47:38;-7.40;99.90
41694;DHT22;27377;50.666;9.150;2024-01-11T07:50:22;-7.30;99.90
41694;DHT22;27377;50.666;9.150;2024-01-11T07:53:07;-7.30;99.90
41694;DHT22;27377;50.666;9.150;2024-01-11T07:55:51;-7.20;99.90
41694;DHT22;27377;50.666;9.150;2024-01-11T07:58:40;-7.30;99.90
41694;DHT22;27377;50.666;9.150;2024-01-11T08:01:25;-7.30;99.90
41694;DHT22;27377;50.666;9.150;2024-01-11T08:04:10;-7.20;99.90
41694;DHT22;27377;50.666;9.150;2024-01-11T08:07:00;-7.10;99.90
41694;DHT22;27377;50.666;9.150;2024-01-11T08:09:50;-7.10;99.90
41694;DHT22;27377;50.666;9.150;2024-01-11T08:12:38;-7.10;99.90
41694;DHT22;27377;50.666;9.150;2024-01-11T08:15:22;-7.10;99.90
41694;DHT22;27377;50.666;9.150;2024-01-11T08:18:06;-7.10;99.90
41694;DHT22;27377;50.666;9.150;2024-01-11T08:20:50;-7.10;99.90
41694;DHT22;27377;50.666;9.150;2024-01-11T08:23:34;-7.10;99.90
41694;DHT22;27377;50.666;9.150;2024-01-11T08:26:18;-7.10;99.90
41694;DHT22;27377;50.666;9.150;2024-01-11T08:29:02;-7.20;99.90
41694;DHT22;27377;50.666;9.150;2024-01-11T08:31:48;-7.10;99.90
41694;DHT22;27377;50.666;9.150;2024-01-11T08:34:32;-7.20;99.90
41694;DHT22;27377;50.666;9.150;2024-01-11T08:37:16;-7.20;99.90
41694;DHT22;27377;50.666;9.150;2024-01-11T08:40:00;-7.20;99.90
41694;DHT22;27377;50.666;9.150;2024-01-11T08:42:44;-7.10;99.90
41694;DHT22;27377;50.666;9.150;2024-01-11T08:45:28;-7.00;99.90
41694;DHT22;27377;50.666;9.150;2024-01-11T08:48:13;-7.00;99.90
41694;DHT22;27377;50.666;9.150;2024-01-11T08:50:58;-7.00;99.90
41694;DHT22;27377;50.666;9.150;2024-01-11T08:53:42;-6.90;99.90
41694;DHT22;27377;50.666;9.150;2024-01-11T08:56:26;-6.80;99.90
41694;DHT22;27377;50.666;9.150;2024-01-11T08:59:10;-6.70;99.90
41694;DHT22;27377;50.666;9.150;2024-01-11T09:01:54;-6.60;99.90
41694;DHT22;27377;50.666;9.150;2024-01-11T09:04:38;-6.50;99.90
41694;DHT22;27377;50.666;9.150;2024-01-11T09:07:22;-6.40;99.90
41694;DHT22;27377;50.666;9.150;2024-01-11T09:10:06;-6.40;99.90
41694;DHT22;27377;50.666;9.150;2024-01-11T09:12:52;-6.30;99.90
41694;DHT22;27377;50.666;9.150;2024-01-11T09:15:38;-6.20;99.90
41694;DHT22;27377;50.666;9.150;2024-01-11T09:18:22;-6.10;99.90
41694;DHT22;27377;50.666;9.150;2024-01-11T09:21:06;-6.00;99.90
41694;DHT22;27377;50.666;9.150;2024-01-11T09:23:51;-5.90;99.90
41694;DHT22;27377;50.666;9.150;2024-01-11T09:26:35;-6.00;99.90
41694;DHT22;27377;50.666;9.150;2024-01-11T09:29:20;-5.90;99.90
41694;DHT22;27377;50.666;9.150;2024-01-11T09:32:04;-5.90;99.90
41694;DHT22;27377;50.666;9.150;2024-01-11T09:34:49;-5.80;99.90
41694;DHT22;27377;50.666;9.150;2024-01-11T09:37:34;-5.70;99.90
41694;DHT22;27377;50.666;9.150;2024-01-11T09:40:18;-5.60;99.90
41694;DHT22;27377;50.666;9.150;2024-01-11T09:43:03;-5.60;99.90
41694;DHT22;27377;50.666;9.150;2024-01-11T09:45:49;-5.50;99.90
41694;DHT22;27377;50.666;9.150;2024-01-11T09:48:35;-5.50;99.90
41694;DHT22;27377;50.666;9.150;2024-01-11T09:51:20;-5.40;99.90
41694;DHT22;27377;50.666;9.150;2024-01-11T09:54:05;-5.20;99.90
41694;DHT22;27377;50.666;9.150;2024-01-11T09:56:51;-5.10;99.90
41694;DHT22;27377;50.666;9.150;2024-01-11T09:59:37;-5.10;99.90
41694;DHT22;27377;50.666;9.150;2024-01-11T10:02:23;-5.10;99.90
41694;DHT22;27377;50.666;9.150;2024-01-11T10:05:07;-5.00;99.90
41694;DHT22;27377;50.666;9.150;2024-01-11T10:07:51;-4.90;99.90
41694;DHT22;27377;50.666;9.150;2024-01-11T10:10:35;-4.90;99.90
41694;DHT22;27377;50.666;9.150;2024-01-11T10:13:26;-4.80;99.90
41694;DHT22;27377;50.666;9.150;2024-01-11T10:16:12;-4.80;99.90
41694;DHT22;27377;50.666;9.150;2024-01-11T10:18:59;-4.70;99.90
41694;DHT22;27377;50.666;9.150;2024-01-11T10:21:43;-4.70;99.90
41694;DHT22;27377;50.666;9.150;2024-01-11T10:24:27;-4.70;99.90
41694;DHT22;27377;50.666;9.150;2024-01-11T10:27:12;-4.60;99.90
41694;DHT22;27377;50.666;9.150;2024-01-11T10:29:56;-4.60;99.90
41694;DHT22;27377;50.666;9.150;2024-01-11T10:32:40;-4.50;99.90
41694;DHT22;27377;50.666;9.150;2024-01-11T10:35:25;-4.50;99.90
41694;DHT22;27377;50.666;9.150;2024-01-11T10:38:10;-4.40;99.90
41694;DHT22;27377;50.666;9.150;2024-01-11T10:40:55;-4.40;99.90
41694;DHT22;27377;50.666;9.150;2024-01-11T10:43:39;-4.40;99.90
41694;DHT22;27377;50.666;9.150;2024-01-11T10:46:25;-4.30;99.90
41694;DHT22;27377;50.666;9.150;2024-01-11T10:49:11;-4.20;99.90
41694;DHT22;27377;50.666;9.150;2024-01-11T10:52:00;-4.20;99.90
41694;DHT22;27377;50.666;9.150;2024-01-11T10:54:45;-4.10;99.90
41694;DHT22;27377;50.666;9.150;2024-01-11T10:57:30;-4.10;99.90
41694;DHT22;27377;50.666;9.150;2024-01-11T11:00:17;-4.00;99.90
41694;DHT22;27377;50.666;9.150;2024-01-11T11:03:03;-3.90;99.90
41694;DHT22;27377;50.666;9.150;2024-01-11T11:05:50;-3.90;99.90
41694;DHT22;27377;50.666;9.150;2024-01-11T11:08:37;-3.90;99.90
41694;DHT22;27377;50.666;9.150;2024-01-11T11:11:21;-3.80;99.90
41694;DHT22;27377;50.666;9.150;2024-01-11T11:14:06;-3.80;99.90
41694;DHT22;27377;50.666;9.150;2024-01-11T11:16:52;-3.80;99.90
41694;DHT22;27377;50.666;9.150;2024-01-11T11:19:36;-3.70;99.90
41694;DHT22;27377;50.666;9.150;2024-01-11T11:22:21;-3.70;99.90
41694;DHT22;27377;50.666;9.150;2024-01-11T11:25:24;-3.60;99.90
41694;DHT22;27377;50.666;9.150;2024-01-11T11:28:08;-3.60;99.90
41694;DHT22;27377;50.666;9.150;2024-01-11T11:30:55;-3.50;99.90
41694;DHT22;27377;50.666;9.150;2024-01-11T11:33:41;-3.50;99.90
41694;DHT22;27377;50.666;9.150;2024-01-11T11:36:28;-3.50;99.90
41694;DHT22;27377;50.666;9.150;2024-01-11T11:39:13;-3.50;99.90
41694;DHT22;27377;50.666;9.150;2024-01-11T11:41:58;-3.40;99.90
41694;DHT22;27377;50.666;9.150;2024-01-11T11:44:49;-3.30;99.90
41694;DHT22;27377;50.666;9.150;2024-01-11T11:47:35;-3.30;99.90
41694;DHT22;27377;50.666;9.150;2024-01-11T11:50:22;-3.30;99.90
41694;DHT22;27377;50.666;9.150;2024-01-11T11:53:06;-3.20;99.90
41694;DHT22;27377;50.666;9.150;2024-01-11T11:55:52;-3.20;99.90
41694;DHT22;27377;50.666;9.150;2024-01-11T11:58:37;-3.10;99.90
41694;DHT22;27377;50.666;9.150;2024-01-11T12:01:21;-3.10;99.90
41694;DHT22;27377;50.666;9.150;2024-01-11T12:04:08;-3.00;99.90
41694;DHT22;27377;50.666;9.150;2024-01-11T12:06:52;-3.00;99.90
41694;DHT22;27377;50.666;9.150;2024-01-11T12:09:37;-2.90;99.90
41694;DHT22;27377;50.666;9.150;2024-01-11T12:12:21;-2.90;99.90
41694;DHT22;27377;50.666;9.150;2024-01-11T12:15:07;-2.80;99.90
41694;DHT22;27377;50.666;9.150;2024-01-11T12:17:57;-2.80;99.90
41694;DHT22;27377;50.666;9.150;2024-01-11T12:20:42;-2.80;99.90
41694;DHT22;27377;50.666;9.150;2024-01-11T12:23:27;-2.70;99.90
41694;DHT22;27377;50.666;9.150;2024-01-11T12:26:13;-2.70;99.90
41694;DHT22;27377;50.666;9.150;2024-01-11T12:28:58;-2.60;99.90
41694;DHT22;27377;50.666;9.150;2024-01-11T12:31:43;-2.60;99.90
41694;DHT22;27377;50.666;9.150;2024-01-11T12:34:28;-2.60;99.90
41694;DHT22;27377;50.666;9.150;2024-01-11T12:37:12;-2.50;99.90
41694;DHT22;27377;50.666;9.150;2024-01-11T12:39:57;-2.50;99.90
41694;DHT22;27377;50.666;9.150;2024-01-11T12:42:42;-2.50;99.90
41694;DHT22;27377;50.666;9.150;2024-01-11T12:45:27;-2.40;99.90
41694;DHT22;27377;50.666;9.150;2024-01-11T12:48:12;-2.30;99.90
41694;DHT22;27377;50.666;9.150;2024-01-11T12:50:58;-2.30;99.90
41694;DHT22;27377;50.666;9.150;2024-01-11T12:53:45;-2.20;99.90
41694;DHT22;27377;50.666;9.150;2024-01-11T12:56:29;-2.20;99.90
41694;DHT22;27377;50.666;9.150;2024-01-11T12:59:13;-2.20;99.90
41694;DHT22;27377;50.666;9.150;2024-01-11T13:02:00;-2.20;99.90
41694;DHT22;27377;50.666;9.150;2024-01-11T13:04:44;-2.20;99.90
41694;DHT22;27377;50.666;9.150;2024-01-11T13:07:33;-2.20;99.90
41694;DHT22;27377;50.666;9.150;2024-01-11T13:10:18;-2.10;99.90
41694;DHT22;27377;50.666;9.150;2024-01-11T13:13:02;-2.10;99.90
41694;DHT22;27377;50.666;9.150;2024-01-11T13:15:47;-2.10;99.90
41694;DHT22;27377;50.666;9.150;2024-01-11T13:18:34;-2.00;99.90
41694;DHT22;27377;50.666;9.150;2024-01-11T13:21:18;-2.00;99.90
41694;DHT22;27377;50.666;9.150;2024-01-11T13:24:03;-2.00;99.90
41694;DHT22;27377;50.666;9.150;2024-01-11T13:26:48;-2.00;99.90
41694;DHT22;27377;50.666;9.150;2024-01-11T13:29:32;-1.90;99.90
41694;DHT22;27377;50.666;9.150;2024-01-11T13:32:16;-1.90;99.90
41694;DHT22;27377;50.666;9.150;2024-01-11T13:35:00;-1.90;99.90
41694;DHT22;27377;50.666;9.150;2024-01-11T13:37:45;-1.80;99.90
41694;DHT22;27377;50.666;9.150;2024-01-11T13:40:30;-1.80;99.90
41694;DHT22;27377;50.666;9.150;2024-01-11T13:43:14;-1.80;99.90
41694;DHT22;27377;50.666;9.150;2024-01-11T13:45:58;-1.80;99.90
41694;DHT22;27377;50.666;9.150;2024-01-11T13:48:42;-1.70;99.90
41694;DHT22;27377;50.666;9.150;2024-01-11T13:51:26;-1.70;99.90
41694;DHT22;27377;50.666;9.150;2024-01-11T13:54:10;-1.70;99.90
41694;DHT22;27377;50.666;9.150;2024-01-11T13:56:55;-1.70;99.90
41694;DHT22;27377;50.666;9.150;2024-01-11T13:59:39;-1.70;99.90
41694;DHT22;27377;50.666;9.150;2024-01-11T14:02:23;-1.70;99.90
41694;DHT22;27377;50.666;9.150;2024-01-11T14:05:07;-1.60;99.90
41694;DHT22;27377;50.666;9.150;2024-01-11T14:07:55;-1.60;99.90
41694;DHT22;27377;50.666;9.150;2024-01-11T14:10:43;-1.60;99.90
41694;DHT22;27377;50.666;9.150;2024-01-11T14:13:27;-1.60;99.90
41694;DHT22;27377;50.666;9.150;2024-01-11T14:16:11;-1.50;99.90
41694;DHT22;27377;50.666;9.150;2024-01-11T14:18:57;-1.50;99.90
41694;DHT22;27377;50.666;9.150;2024-01-11T14:21:41;-1.50;99.90
41694;DHT22;27377;50.666;9.150;2024-01-11T14:24:25;-1.50;99.90
41694;DHT22;27377;50.666;9.150;2024-01-11T14:27:09;-1.40;99.90
41694;DHT22;27377;50.666;9.150;2024-01-11T14:29:53;-1.40;99.90
41694;DHT22;27377;50.666;9.150;2024-01-11T14:32:38;-1.40;99.90
41694;DHT22;27377;50.666;9.150;2024-01-11T14:35:22;-1.40;99.90
41694;DHT22;27377;50.666;9.150;2024-01-11T14:38:07;-1.40;99.90
41694;DHT22;27377;50.666;9.150;2024-01-11T14:40:51;-1.40;99.90
41694;DHT22;27377;50.666;9.150;2024-01-11T14:43:35;-1.40;99.90
41694;DHT22;27377;50.666;9.150;2024-01-11T14:46:20;-1.40;99.90
41694;DHT22;27377;50.666;9.150;2024-01-11T14:49:04;-1.40;99.90
41694;DHT22;27377;50.666;9.150;2024-01-11T14:51:48;-1.40;99.90
41694;DHT22;27377;50.666;9.150;2024-01-11T14:54:32;-1.40;99.90
41694;DHT22;27377;50.666;9.150;2024-01-11T14:57:17;-1.40;99.90
41694;DHT22;27377;50.666;9.150;2024-01-11T15:00:01;-1.40;99.90
41694;DHT22;27377;50.666;9.150;2024-01-11T15:02:46;-1.50;99.90
41694;DHT22;27377;50.666;9.150;2024-01-11T15:05:30;-1.50;99.90
41694;DHT22;27377;50.666;9.150;2024-01-11T15:08:15;-1.50;99.90
41694;DHT22;27377;50.666;9.150;2024-01-11T15:10:59;-1.50;99.90
41694;DHT22;27377;50.666;9.150;2024-01-11T15:13:43;-1.50;99.90
41694;DHT22;27377;50.666;9.150;2024-01-11T15:16:28;-1.60;99.90
41694;DHT22;27377;50.666;9.150;2024-01-11T15:19:13;-1.60;99.90
41694;DHT22;27377;50.666;9.150;2024-01-11T15:21:57;-1.60;99.90
41694;DHT22;27377;50.666;9.150;2024-01-11T15:24:41;-1.60;99.90
41694;DHT22;27377;50.666;9.150;2024-01-11T15:27:26;-1.60;99.90
41694;DHT22;27377;50.666;9.150;2024-01-11T15:30:14;-1.60;99.90
41694;DHT22;27377;50.666;9.150;2024-01-11T15:32:59;-1.70;99.90
41694;DHT22;27377;50.666;9.150;2024-01-11T15:35:44;-1.70;99.90
41694;DHT22;27377;50.666;9.150;2024-01-11T15:38:28;-1.70;99.90
41694;DHT22;27377;50.666;9.150;2024-01-11T15:41:12;-1.70;99.90
41694;DHT22;27377;50.666;9.150;2024-01-11T15:43:57;-1.70;99.90
41694;DHT22;27377;50.666;9.150;2024-01-11T15:46:41;-1.70;99.90
41694;DHT22;27377;50.666;9.150;2024-01-11T15:49:26;-1.80;99.90
41694;DHT22;27377;50.666;9.150;2024-01-11T15:52:11;-1.80;99.90
41694;DHT22;27377;50.666;9.150;2024-01-11T15:54:55;-1.80;99.90
41694;DHT22;27377;50.666;9.150;2024-01-11T15:57:39;-1.90;99.90
41694;DHT22;27377;50.666;9.150;2024-01-11T16:00:24;-1.90;99.90
41694;DHT22;27377;50.666;9.150;2024-01-11T16:03:08;-1.90;99.90
41694;DHT22;27377;50.666;9.150;2024-01-11T16:05:52;-2.00;99.90
41694;DHT22;27377;50.666;9.150;2024-01-11T16:08:37;-2.00;99.90
41694;DHT22;27377;50.666;9.150;2024-01-11T16:11:22;-2.00;99.90
41694;DHT22;27377;50.666;9.150;2024-01-11T16:14:07;-2.00;99.90
41694;DHT22;27377;50.666;9.150;2024-01-11T16:16:51;-2.00;99.90
41694;DHT22;27377;50.666;9.150;2024-01-11T16:19:35;-2.10;99.90
41694;DHT22;27377;50.666;9.150;2024-01-11T16:22:20;-2.10;99.90
41694;DHT22;27377;50.666;9.150;2024-01-11T16:25:04;-2.10;99.90
41694;DHT22;27377;50.666;9.150;2024-01-11T16:27:49;-2.10;99.90
41694;DHT22;27377;50.666;9.150;2024-01-11T16:30:33;-2.20;99.90
41694;DHT22;27377;50.666;9.150;2024-01-11T16:33:17;-2.10;99.90
41694;DHT22;27377;50.666;9.150;2024-01-11T16:36:02;-2.20;99.90
41694;DHT22;27377;50.666;9.150;2024-01-11T16:38:47;-2.20;99.90
41694;DHT22;27377;50.666;9.150;2024-01-11T16:41:32;-2.20;99.90
41694;DHT22;27377;50.666;9.150;2024-01-11T16:44:19;-2.20;99.90
41694;DHT22;27377;50.666;9.150;2024-01-11T16:47:03;-2.30;99.90
41694;DHT22;27377;50.666;9.150;2024-01-11T16:49:47;-2.30;99.90
41694;DHT22;27377;50.666;9.150;2024-01-11T16:52:32;-2.30;99.90
41694;DHT22;27377;50.666;9.150;2024-01-11T16:55:17;-2.40;99.90
41694;DHT22;27377;50.666;9.150;2024-01-11T16:58:01;-2.40;99.90
41694;DHT22;27377;50.666;9.150;2024-01-11T17:00:45;-2.40;99.90
41694;DHT22;27377;50.666;9.150;2024-01-11T17:03:29;-2.40;99.90
41694;DHT22;27377;50.666;9.150;2024-01-11T17:06:13;-2.40;99.90
41694;DHT22;27377;50.666;9.150;2024-01-11T17:09:02;-2.40;99.90
41694;DHT22;27377;50.666;9.150;2024-01-11T17:11:46;-2.40;99.90
41694;DHT22;27377;50.666;9.150;2024-01-11T17:14:30;-2.40;99.90
41694;DHT22;27377;50.666;9.150;2024-01-11T17:17:14;-2.40;99.90
41694;DHT22;27377;50.666;9.150;2024-01-11T17:19:59;-2.40;99.90
41694;DHT22;27377;50.666;9.150;2024-01-11T17:22:43;-2.40;99.90
41694;DHT22;27377;50.666;9.150;2024-01-11T17:25:27;-2.40;99.90